sensor_id;sensor_type;location;lat;lon;timestamp;pressure;altitude;pressure_sealevel;temperature;humidity
51439;BME280;38816;51.142;-0.974;2023-02-03T00:01:18;101445.47;;;7.46;100.00
51439;BME280;38816;51.142;-0.974;2023-02-03T00:03:43;101437.97;;;7.49;100.00
51439;BME280;38816;51.142;-0.974;2023-02-03T00:06:09;101433.66;;;7.48;100.00
51439;BME280;38816;51.142;-0.974;2023-02-03T00:08:35;101419.72;;;7.43;100.00
51439;BME280;38816;51.142;-0.974;2023-02-03T00:11:01;101428.66;;;7.51;100.00
51439;BME280;38816;51.142;-0.974;2023-02-03T00:13:27;101438.59;;;7.45;100.00
51439;BME280;38816;51.142;-0.974;2023-02-03T00:15:52;101434.16;;;7.41;100.00
51439;BME280;38816;51.142;-0.974;2023-02-03T00:18:18;101435.84;;;7.40;100.00
51439;BME280;38816;51.142;-0.974;2023-02-03T00:20:43;101447.09;;;7.44;100.00
51439;BME280;38816;51.142;-0.974;2023-02-03T00:23:10;101451.69;;;7.51;100.00
51439;BME280;38816;51.142;-0.974;2023-02-03T00:25:36;101457.19;;;7.58;100.00
51439;BME280;38816;51.142;-0.974;2023-02-03T00:28:02;101456.16;;;7.55;100.00
51439;BME280;38816;51.142;-0.974;2023-02-03T00:30:28;101456.31;;;7.58;100.00
51439;BME280;38816;51.142;-0.974;2023-02-03T00:32:53;101457.03;;;7.55;100.00
51439;BME280;38816;51.142;-0.974;2023-02-03T00:35:19;101464.84;;;7.58;100.00
51439;BME280;38816;51.142;-0.974;2023-02-03T00:37:53;101464.25;;;7.64;100.00
51439;BME280;38816;51.142;-0.974;2023-02-03T00:40:20;101475.47;;;7.66;100.00
51439;BME280;38816;51.142;-0.974;2023-02-03T00:42:45;101472.53;;;7.58;100.00
51439;BME280;38816;51.142;-0.974;2023-02-03T00:45:11;101457.44;;;7.47;100.00
51439;BME280;38816;51.142;-0.974;2023-02-03T00:47:36;101470.25;;;7.47;100.00
51439;BME280;38816;51.142;-0.974;2023-02-03T00:50:02;101475.97;;;7.59;100.00
51439;BME280;38816;51.142;-0.974;2023-02-03T00:52:28;101466.97;;;7.49;100.00
51439;BME280;38816;51.142;-0.974;2023-02-03T00:54:53;101491.38;;;7.60;100.00
51439;BME280;38816;51.142;-0.974;2023-02-03T00:57:19;101488.03;;;7.61;100.00
51439;BME280;38816;51.142;-0.974;2023-02-03T00:59:44;101474.06;;;7.55;100.00
51439;BME280;38816;51.142;-0.974;2023-02-03T01:02:09;101487.28;;;7.64;100.00
51439;BME280;38816;51.142;-0.974;2023-02-03T01:04:35;101481.47;;;7.67;100.00
51439;BME280;38816;51.142;-0.974;2023-02-03T01:07:00;101474.50;;;7.64;100.00
51439;BME280;38816;51.142;-0.974;2023-02-03T01:09:25;101484.25;;;7.71;100.00
51439;BME280;38816;51.142;-0.974;2023-02-03T01:11:51;101466.91;;;7.66;100.00
51439;BME280;38816;51.142;-0.974;2023-02-03T01:14:16;101459.91;;;7.79;100.00
51439;BME280;38816;51.142;-0.974;2023-02-03T01:16:42;101457.19;;;7.76;100.00
51439;BME280;38816;51.142;-0.974;2023-02-03T01:19:07;101447.16;;;7.81;100.00
51439;BME280;38816;51.142;-0.974;2023-02-03T01:21:33;101426.03;;;7.67;100.00
51439;BME280;38816;51.142;-0.974;2023-02-03T01:24:00;101404.47;;;7.62;100.00
51439;BME280;38816;51.142;-0.974;2023-02-03T01:26:26;101419.94;;;7.65;100.00
51439;BME280;38816;51.142;-0.974;2023-02-03T01:28:56;101427.06;;;7.53;100.00
51439;BME280;38816;51.142;-0.974;2023-02-03T01:31:31;101438.91;;;7.51;100.00
51439;BME280;38816;51.142;-0.974;2023-02-03T01:33:58;101413.84;;;7.44;100.00
51439;BME280;38816;51.142;-0.974;2023-02-03T01:36:25;101414.75;;;7.28;100.00
51439;BME280;38816;51.142;-0.974;2023-02-03T01:38:52;101409.59;;;7.26;100.00
51439;BME280;38816;51.142;-0.974;2023-02-03T01:41:23;101421.63;;;7.29;100.00
51439;BME280;38816;51.142;-0.974;2023-02-03T01:43:51;101420.75;;;7.28;100.00
51439;BME280;38816;51.142;-0.974;2023-02-03T01:46:24;101423.91;;;7.41;100.00
51439;BME280;38816;51.142;-0.974;2023-02-03T01:48:51;101426.41;;;7.57;100.00
51439;BME280;38816;51.142;-0.974;2023-02-03T01:51:18;101416.53;;;7.47;100.00
51439;BME280;38816;51.142;-0.974;2023-02-03T01:53:44;101420.06;;;7.49;100.00
51439;BME280;38816;51.142;-0.974;2023-02-03T01:56:10;101417.50;;;7.49;100.00
51439;BME280;38816;51.142;-0.974;2023-02-03T01:58:38;101410.69;;;7.49;100.00
51439;BME280;38816;51.142;-0.974;2023-02-03T02:01:05;101415.94;;;7.70;100.00
51439;BME280;38816;51.142;-0.974;2023-02-03T02:03:35;101414.63;;;7.60;100.00
51439;BME280;38816;51.142;-0.974;2023-02-03T02:06:08;101418.19;;;7.64;100.00
51439;BME280;38816;51.142;-0.974;2023-02-03T02:08:35;101427.06;;;7.71;100.00
51439;BME280;38816;51.142;-0.974;2023-02-03T02:11:02;101413.75;;;7.60;100.00
51439;BME280;38816;51.142;-0.974;2023-02-03T02:13:29;101428.44;;;7.64;100.00
51439;BME280;38816;51.142;-0.974;2023-02-03T02:16:06;101426.84;;;7.66;100.00
51439;BME280;38816;51.142;-0.974;2023-02-03T02:26:51;101434.19;;;7.78;100.00
51439;BME280;38816;51.142;-0.974;2023-02-03T02:40:00;101416.81;;;7.71;100.00
51439;BME280;38816;51.142;-0.974;2023-02-03T02:45:26;101409.56;;;7.80;100.00
51439;BME280;38816;51.142;-0.974;2023-02-03T02:48:10;101421.84;;;7.69;100.00
51439;BME280;38816;51.142;-0.974;2023-02-03T02:50:41;101413.91;;;7.63;100.00
51439;BME280;38816;51.142;-0.974;2023-02-03T02:53:09;101425.06;;;7.65;100.00
51439;BME280;38816;51.142;-0.974;2023-02-03T02:55:37;101420.38;;;7.56;100.00
51439;BME280;38816;51.142;-0.974;2023-02-03T02:58:07;101408.19;;;7.51;100.00
51439;BME280;38816;51.142;-0.974;2023-02-03T03:00:35;101414.94;;;7.49;100.00
51439;BME280;38816;51.142;-0.974;2023-02-03T03:05:41;101429.63;;;7.53;100.00
51439;BME280;38816;51.142;-0.974;2023-02-03T03:08:09;101447.22;;;7.47;100.00
51439;BME280;38816;51.142;-0.974;2023-02-03T03:10:38;101456.97;;;7.54;100.00
51439;BME280;38816;51.142;-0.974;2023-02-03T03:13:08;101449.44;;;7.39;100.00
51439;BME280;38816;51.142;-0.974;2023-02-03T03:15:36;101444.59;;;7.27;100.00
51439;BME280;38816;51.142;-0.974;2023-02-03T03:18:09;101453.19;;;7.29;100.00
51439;BME280;38816;51.142;-0.974;2023-02-03T03:20:38;101464.56;;;7.34;100.00
51439;BME280;38816;51.142;-0.974;2023-02-03T03:23:12;101463.34;;;7.28;100.00
51439;BME280;38816;51.142;-0.974;2023-02-03T03:25:43;101452.44;;;7.14;100.00
51439;BME280;38816;51.142;-0.974;2023-02-03T03:28:17;101431.84;;;7.11;100.00
51439;BME280;38816;51.142;-0.974;2023-02-03T03:30:48;101444.13;;;7.18;100.00
51439;BME280;38816;51.142;-0.974;2023-02-03T03:33:14;101445.06;;;7.20;100.00
51439;BME280;38816;51.142;-0.974;2023-02-03T03:35:59;101435.38;;;7.13;100.00
51439;BME280;38816;51.142;-0.974;2023-02-03T03:38:37;101445.00;;;7.19;100.00
51439;BME280;38816;51.142;-0.974;2023-02-03T03:41:55;101437.09;;;7.14;100.00
51439;BME280;38816;51.142;-0.974;2023-02-03T03:44:02;101441.19;;;7.10;100.00
51439;BME280;38816;51.142;-0.974;2023-02-03T03:46:40;101432.25;;;7.02;100.00
51439;BME280;38816;51.142;-0.974;2023-02-03T03:49:09;101450.88;;;7.16;100.00
51439;BME280;38816;51.142;-0.974;2023-02-03T03:51:43;101460.50;;;7.22;100.00
51439;BME280;38816;51.142;-0.974;2023-02-03T03:54:14;101455.25;;;7.19;100.00
51439;BME280;38816;51.142;-0.974;2023-02-03T03:57:01;101471.25;;;7.32;100.00
51439;BME280;38816;51.142;-0.974;2023-02-03T03:59:32;101456.44;;;7.25;100.00
51439;BME280;38816;51.142;-0.974;2023-02-03T04:02:00;101454.53;;;7.21;100.00
51439;BME280;38816;51.142;-0.974;2023-02-03T04:04:29;101471.03;;;7.28;100.00
51439;BME280;38816;51.142;-0.974;2023-02-03T04:06:56;101472.22;;;7.34;100.00
51439;BME280;38816;51.142;-0.974;2023-02-03T04:09:21;101451.31;;;7.25;100.00
51439;BME280;38816;51.142;-0.974;2023-02-03T04:11:47;101445.78;;;7.34;100.00
51439;BME280;38816;51.142;-0.974;2023-02-03T04:14:26;101457.09;;;7.39;100.00
51439;BME280;38816;51.142;-0.974;2023-02-03T04:16:52;101448.47;;;7.37;100.00
51439;BME280;38816;51.142;-0.974;2023-02-03T04:19:17;101450.78;;;7.32;100.00
51439;BME280;38816;51.142;-0.974;2023-02-03T04:21:42;101461.41;;;7.40;100.00
51439;BME280;38816;51.142;-0.974;2023-02-03T04:24:08;101450.44;;;7.43;100.00
51439;BME280;38816;51.142;-0.974;2023-02-03T04:26:33;101451.47;;;7.46;100.00
51439;BME280;38816;51.142;-0.974;2023-02-03T04:28:59;101445.09;;;7.38;100.00
51439;BME280;38816;51.142;-0.974;2023-02-03T04:31:24;101458.25;;;7.46;100.00
51439;BME280;38816;51.142;-0.974;2023-02-03T04:33:49;101461.31;;;7.56;100.00
51439;BME280;38816;51.142;-0.974;2023-02-03T04:36:15;101476.47;;;7.52;100.00
51439;BME280;38816;51.142;-0.974;2023-02-03T04:38:40;101455.53;;;7.43;100.00
51439;BME280;38816;51.142;-0.974;2023-02-03T04:41:06;101468.50;;;7.46;100.00
51439;BME280;38816;51.142;-0.974;2023-02-03T04:43:31;101469.59;;;7.51;100.00
51439;BME280;38816;51.142;-0.974;2023-02-03T04:45:58;101488.59;;;7.56;100.00
51439;BME280;38816;51.142;-0.974;2023-02-03T04:48:24;101495.19;;;7.51;100.00
51439;BME280;38816;51.142;-0.974;2023-02-03T04:50:50;101497.41;;;7.61;100.00
51439;BME280;38816;51.142;-0.974;2023-02-03T04:53:15;101496.16;;;7.53;100.00
51439;BME280;38816;51.142;-0.974;2023-02-03T04:55:40;101491.25;;;7.40;100.00
51439;BME280;38816;51.142;-0.974;2023-02-03T04:58:06;101490.81;;;7.48;100.00
51439;BME280;38816;51.142;-0.974;2023-02-03T05:03:52;101492.34;;;7.45;100.00
51439;BME280;38816;51.142;-0.974;2023-02-03T05:06:22;101480.47;;;7.47;100.00
51439;BME280;38816;51.142;-0.974;2023-02-03T05:08:48;101487.00;;;7.40;100.00
51439;BME280;38816;51.142;-0.974;2023-02-03T05:11:14;101499.56;;;7.35;100.00
51439;BME280;38816;51.142;-0.974;2023-02-03T05:13:39;101499.38;;;7.49;100.00
51439;BME280;38816;51.142;-0.974;2023-02-03T05:16:05;101499.44;;;7.50;100.00
51439;BME280;38816;51.142;-0.974;2023-02-03T05:18:30;101472.56;;;7.24;100.00
51439;BME280;38816;51.142;-0.974;2023-02-03T05:20:56;101503.06;;;7.38;100.00
51439;BME280;38816;51.142;-0.974;2023-02-03T05:23:21;101501.31;;;7.36;100.00
51439;BME280;38816;51.142;-0.974;2023-02-03T05:25:47;101512.41;;;7.37;100.00
51439;BME280;38816;51.142;-0.974;2023-02-03T05:28:12;101506.91;;;7.29;100.00
51439;BME280;38816;51.142;-0.974;2023-02-03T05:30:38;101518.13;;;7.31;100.00
51439;BME280;38816;51.142;-0.974;2023-02-03T05:33:03;101535.53;;;7.56;100.00
51439;BME280;38816;51.142;-0.974;2023-02-03T05:35:29;101535.19;;;7.49;100.00
51439;BME280;38816;51.142;-0.974;2023-02-03T05:37:54;101535.81;;;7.45;100.00
51439;BME280;38816;51.142;-0.974;2023-02-03T05:40:19;101531.19;;;7.38;100.00
51439;BME280;38816;51.142;-0.974;2023-02-03T05:43:03;101547.41;;;7.38;100.00
51439;BME280;38816;51.142;-0.974;2023-02-03T05:45:29;101536.00;;;7.31;100.00
51439;BME280;38816;51.142;-0.974;2023-02-03T05:47:54;101551.81;;;7.41;100.00
51439;BME280;38816;51.142;-0.974;2023-02-03T05:50:19;101558.84;;;7.45;100.00
51439;BME280;38816;51.142;-0.974;2023-02-03T05:52:47;101554.53;;;7.44;100.00
51439;BME280;38816;51.142;-0.974;2023-02-03T05:55:12;101561.56;;;7.48;100.00
51439;BME280;38816;51.142;-0.974;2023-02-03T05:57:37;101549.91;;;7.36;100.00
51439;BME280;38816;51.142;-0.974;2023-02-03T06:00:03;101558.63;;;7.40;100.00
51439;BME280;38816;51.142;-0.974;2023-02-03T06:02:31;101545.44;;;7.32;100.00
51439;BME280;38816;51.142;-0.974;2023-02-03T06:04:56;101556.78;;;7.38;100.00
51439;BME280;38816;51.142;-0.974;2023-02-03T06:07:22;101556.06;;;7.40;100.00
51439;BME280;38816;51.142;-0.974;2023-02-03T06:09:47;101548.97;;;7.34;100.00
51439;BME280;38816;51.142;-0.974;2023-02-03T06:12:14;101543.63;;;7.30;100.00
51439;BME280;38816;51.142;-0.974;2023-02-03T06:14:39;101563.44;;;7.34;100.00
51439;BME280;38816;51.142;-0.974;2023-02-03T06:17:05;101548.97;;;7.34;100.00
51439;BME280;38816;51.142;-0.974;2023-02-03T06:19:30;101557.50;;;7.35;100.00
51439;BME280;38816;51.142;-0.974;2023-02-03T06:21:55;101571.88;;;7.33;100.00
51439;BME280;38816;51.142;-0.974;2023-02-03T06:24:21;101579.50;;;7.31;100.00
51439;BME280;38816;51.142;-0.974;2023-02-03T06:26:46;101574.97;;;7.26;100.00
51439;BME280;38816;51.142;-0.974;2023-02-03T06:29:11;101578.38;;;7.26;100.00
51439;BME280;38816;51.142;-0.974;2023-02-03T06:31:37;101593.97;;;7.31;100.00
51439;BME280;38816;51.142;-0.974;2023-02-03T06:34:02;101576.53;;;7.40;100.00
51439;BME280;38816;51.142;-0.974;2023-02-03T06:36:28;101579.56;;;7.49;100.00
51439;BME280;38816;51.142;-0.974;2023-02-03T06:38:53;101589.22;;;7.55;100.00
51439;BME280;38816;51.142;-0.974;2023-02-03T06:41:19;101582.03;;;7.48;100.00
51439;BME280;38816;51.142;-0.974;2023-02-03T06:43:44;101572.22;;;7.39;100.00
51439;BME280;38816;51.142;-0.974;2023-02-03T06:46:09;101579.91;;;7.39;100.00
51439;BME280;38816;51.142;-0.974;2023-02-03T06:48:35;101585.31;;;7.45;100.00
51439;BME280;38816;51.142;-0.974;2023-02-03T06:51:00;101580.84;;;7.41;100.00
51439;BME280;38816;51.142;-0.974;2023-02-03T06:53:26;101578.91;;;7.53;100.00
51439;BME280;38816;51.142;-0.974;2023-02-03T06:55:51;101575.56;;;7.38;100.00
51439;BME280;38816;51.142;-0.974;2023-02-03T06:58:16;101564.16;;;7.31;100.00
51439;BME280;38816;51.142;-0.974;2023-02-03T07:00:42;101569.56;;;7.38;100.00
51439;BME280;38816;51.142;-0.974;2023-02-03T07:03:07;101551.00;;;7.42;100.00
51439;BME280;38816;51.142;-0.974;2023-02-03T07:05:33;101543.09;;;7.37;100.00
51439;BME280;38816;51.142;-0.974;2023-02-03T07:08:00;101540.72;;;7.40;100.00
51439;BME280;38816;51.142;-0.974;2023-02-03T07:10:25;101542.81;;;7.31;100.00
51439;BME280;38816;51.142;-0.974;2023-02-03T07:12:50;101536.50;;;7.24;100.00
51439;BME280;38816;51.142;-0.974;2023-02-03T07:15:16;101530.59;;;7.25;100.00
51439;BME280;38816;51.142;-0.974;2023-02-03T07:17:42;101530.66;;;7.27;100.00
51439;BME280;38816;51.142;-0.974;2023-02-03T07:20:08;101530.13;;;7.16;100.00
51439;BME280;38816;51.142;-0.974;2023-02-03T07:22:33;101520.22;;;7.06;100.00
51439;BME280;38816;51.142;-0.974;2023-02-03T07:25:00;101523.59;;;7.05;100.00
51439;BME280;38816;51.142;-0.974;2023-02-03T07:27:26;101529.41;;;7.02;100.00
51439;BME280;38816;51.142;-0.974;2023-02-03T07:29:52;101523.66;;;7.06;100.00
51439;BME280;38816;51.142;-0.974;2023-02-03T07:32:17;101520.56;;;7.12;100.00
51439;BME280;38816;51.142;-0.974;2023-02-03T07:34:43;101544.63;;;7.33;100.00
51439;BME280;38816;51.142;-0.974;2023-02-03T07:37:08;101547.50;;;7.40;100.00
51439;BME280;38816;51.142;-0.974;2023-02-03T07:39:33;101548.63;;;7.45;100.00
51439;BME280;38816;51.142;-0.974;2023-02-03T07:41:59;101558.91;;;7.46;100.00
51439;BME280;38816;51.142;-0.974;2023-02-03T07:44:24;101546.34;;;7.51;100.00
51439;BME280;38816;51.142;-0.974;2023-02-03T07:46:49;101547.66;;;7.43;100.00
51439;BME280;38816;51.142;-0.974;2023-02-03T07:49:15;101569.53;;;7.54;100.00
51439;BME280;38816;51.142;-0.974;2023-02-03T07:51:40;101584.25;;;7.58;100.00
51439;BME280;38816;51.142;-0.974;2023-02-03T07:54:06;101571.13;;;7.52;100.00
51439;BME280;38816;51.142;-0.974;2023-02-03T07:56:32;101581.69;;;7.58;100.00
51439;BME280;38816;51.142;-0.974;2023-02-03T07:59:00;101585.38;;;7.47;100.00
51439;BME280;38816;51.142;-0.974;2023-02-03T08:01:26;101594.03;;;7.49;100.00
51439;BME280;38816;51.142;-0.974;2023-02-03T08:03:52;101583.56;;;7.44;100.00
51439;BME280;38816;51.142;-0.974;2023-02-03T08:06:17;101596.34;;;7.44;100.00
51439;BME280;38816;51.142;-0.974;2023-02-03T08:08:43;101595.56;;;7.29;100.00
51439;BME280;38816;51.142;-0.974;2023-02-03T08:11:09;101621.94;;;7.44;100.00
51439;BME280;38816;51.142;-0.974;2023-02-03T08:13:34;101623.22;;;7.36;100.00
51439;BME280;38816;51.142;-0.974;2023-02-03T08:16:00;101625.72;;;7.34;100.00
51439;BME280;38816;51.142;-0.974;2023-02-03T08:18:25;101634.78;;;7.46;100.00
51439;BME280;38816;51.142;-0.974;2023-02-03T08:20:50;101642.28;;;7.59;100.00
51439;BME280;38816;51.142;-0.974;2023-02-03T08:23:16;101639.09;;;7.63;100.00
51439;BME280;38816;51.142;-0.974;2023-02-03T08:25:41;101641.59;;;7.61;100.00
51439;BME280;38816;51.142;-0.974;2023-02-03T08:28:07;101640.91;;;7.82;100.00
51439;BME280;38816;51.142;-0.974;2023-02-03T08:30:32;101634.72;;;7.78;100.00
51439;BME280;38816;51.142;-0.974;2023-02-03T08:32:58;101638.22;;;7.97;100.00
51439;BME280;38816;51.142;-0.974;2023-02-03T08:35:24;101637.09;;;7.92;100.00
51439;BME280;38816;51.142;-0.974;2023-02-03T08:37:49;101621.84;;;7.93;100.00
51439;BME280;38816;51.142;-0.974;2023-02-03T08:40:15;101626.53;;;8.02;100.00
51439;BME280;38816;51.142;-0.974;2023-02-03T08:42:41;101618.97;;;8.05;100.00
51439;BME280;38816;51.142;-0.974;2023-02-03T08:45:06;101628.66;;;8.10;100.00
51439;BME280;38816;51.142;-0.974;2023-02-03T08:47:32;101641.91;;;8.02;100.00
51439;BME280;38816;51.142;-0.974;2023-02-03T08:49:57;101640.88;;;7.98;100.00
51439;BME280;38816;51.142;-0.974;2023-02-03T08:52:23;101639.25;;;8.00;100.00
51439;BME280;38816;51.142;-0.974;2023-02-03T08:54:48;101643.84;;;7.90;100.00
51439;BME280;38816;51.142;-0.974;2023-02-03T08:57:14;101636.63;;;7.99;100.00
51439;BME280;38816;51.142;-0.974;2023-02-03T08:59:41;101621.91;;;7.95;100.00
51439;BME280;38816;51.142;-0.974;2023-02-03T09:02:10;101625.19;;;7.92;100.00
51439;BME280;38816;51.142;-0.974;2023-02-03T09:04:38;101624.25;;;7.90;100.00
51439;BME280;38816;51.142;-0.974;2023-02-03T09:07:03;101646.03;;;8.00;100.00
51439;BME280;38816;51.142;-0.974;2023-02-03T09:09:29;101659.72;;;8.00;100.00
51439;BME280;38816;51.142;-0.974;2023-02-03T09:11:55;101649.72;;;8.05;100.00
51439;BME280;38816;51.142;-0.974;2023-02-03T09:14:27;101644.00;;;7.93;100.00
51439;BME280;38816;51.142;-0.974;2023-02-03T09:16:52;101643.25;;;7.95;100.00
51439;BME280;38816;51.142;-0.974;2023-02-03T09:19:17;101644.72;;;7.90;100.00
51439;BME280;38816;51.142;-0.974;2023-02-03T09:21:43;101650.00;;;7.93;100.00
51439;BME280;38816;51.142;-0.974;2023-02-03T09:24:09;101657.47;;;7.89;100.00
51439;BME280;38816;51.142;-0.974;2023-02-03T09:26:35;101650.34;;;8.01;100.00
51439;BME280;38816;51.142;-0.974;2023-02-03T09:29:00;101651.09;;;7.98;100.00
51439;BME280;38816;51.142;-0.974;2023-02-03T09:31:25;101653.91;;;8.03;100.00
51439;BME280;38816;51.142;-0.974;2023-02-03T09:33:51;101645.41;;;8.04;100.00
51439;BME280;38816;51.142;-0.974;2023-02-03T09:36:16;101640.72;;;8.13;100.00
51439;BME280;38816;51.142;-0.974;2023-02-03T09:38:42;101656.69;;;8.25;100.00
51439;BME280;38816;51.142;-0.974;2023-02-03T09:46:21;101682.25;;;8.42;100.00
51439;BME280;38816;51.142;-0.974;2023-02-03T09:48:50;101683.69;;;8.53;100.00
51439;BME280;38816;51.142;-0.974;2023-02-03T09:51:28;101684.47;;;8.70;100.00
51439;BME280;38816;51.142;-0.974;2023-02-03T09:54:15;101685.19;;;8.85;100.00
51439;BME280;38816;51.142;-0.974;2023-02-03T09:56:43;101675.88;;;8.87;100.00
51439;BME280;38816;51.142;-0.974;2023-02-03T09:59:15;101692.19;;;9.07;100.00
51439;BME280;38816;51.142;-0.974;2023-02-03T10:04:26;101693.94;;;9.08;100.00
51439;BME280;38816;51.142;-0.974;2023-02-03T10:07:18;101677.72;;;9.09;100.00
51439;BME280;38816;51.142;-0.974;2023-02-03T10:10:03;101699.81;;;9.05;100.00
51439;BME280;38816;51.142;-0.974;2023-02-03T10:15:56;101683.81;;;9.11;100.00
51439;BME280;38816;51.142;-0.974;2023-02-03T10:18:35;101679.63;;;9.13;100.00
51439;BME280;38816;51.142;-0.974;2023-02-03T10:21:13;101689.53;;;9.23;100.00
51439;BME280;38816;51.142;-0.974;2023-02-03T10:23:42;101683.47;;;9.23;100.00
51439;BME280;38816;51.142;-0.974;2023-02-03T10:26:25;101694.91;;;9.29;100.00
51439;BME280;38816;51.142;-0.974;2023-02-03T10:28:55;101700.19;;;9.32;100.00
51439;BME280;38816;51.142;-0.974;2023-02-03T10:31:24;101693.69;;;9.41;100.00
51439;BME280;38816;51.142;-0.974;2023-02-03T10:34:11;101695.78;;;9.49;100.00
51439;BME280;38816;51.142;-0.974;2023-02-03T10:39:34;101687.28;;;9.50;100.00
51439;BME280;38816;51.142;-0.974;2023-02-03T10:42:04;101687.41;;;9.53;100.00
51439;BME280;38816;51.142;-0.974;2023-02-03T10:44:37;101699.72;;;9.60;100.00
51439;BME280;38816;51.142;-0.974;2023-02-03T10:49:49;101710.34;;;9.68;100.00
51439;BME280;38816;51.142;-0.974;2023-02-03T10:52:27;101725.38;;;9.80;100.00
51439;BME280;38816;51.142;-0.974;2023-02-03T10:54:53;101735.38;;;9.74;100.00
51439;BME280;38816;51.142;-0.974;2023-02-03T10:57:20;101718.28;;;9.74;100.00
51439;BME280;38816;51.142;-0.974;2023-02-03T10:59:47;101721.72;;;9.75;100.00
51439;BME280;38816;51.142;-0.974;2023-02-03T11:02:27;101733.06;;;9.80;100.00
51439;BME280;38816;51.142;-0.974;2023-02-03T11:07:42;101734.44;;;9.91;100.00
51439;BME280;38816;51.142;-0.974;2023-02-03T11:10:35;101743.56;;;9.84;100.00
51439;BME280;38816;51.142;-0.974;2023-02-03T11:15:36;101747.72;;;10.02;100.00
51439;BME280;38816;51.142;-0.974;2023-02-03T11:18:03;101760.16;;;10.12;100.00
51439;BME280;38816;51.142;-0.974;2023-02-03T11:20:29;101768.81;;;10.14;100.00
51439;BME280;38816;51.142;-0.974;2023-02-03T11:22:54;101758.53;;;10.14;100.00
51439;BME280;38816;51.142;-0.974;2023-02-03T11:25:31;101750.63;;;10.29;100.00
51439;BME280;38816;51.142;-0.974;2023-02-03T11:28:03;101758.03;;;10.23;100.00
51439;BME280;38816;51.142;-0.974;2023-02-03T11:30:29;101754.44;;;10.38;100.00
51439;BME280;38816;51.142;-0.974;2023-02-03T11:32:55;101751.03;;;10.39;100.00
51439;BME280;38816;51.142;-0.974;2023-02-03T11:35:23;101755.97;;;10.54;100.00
51439;BME280;38816;51.142;-0.974;2023-02-03T11:37:55;101759.09;;;10.68;100.00
51439;BME280;38816;51.142;-0.974;2023-02-03T11:50:50;101758.06;;;10.44;100.00
51439;BME280;38816;51.142;-0.974;2023-02-03T12:05:05;101774.47;;;10.26;100.00
51439;BME280;38816;51.142;-0.974;2023-02-03T12:07:50;101773.00;;;10.31;100.00
51439;BME280;38816;51.142;-0.974;2023-02-03T12:21:43;101766.44;;;10.19;100.00
51439;BME280;38816;51.142;-0.974;2023-02-03T12:27:48;101768.53;;;10.08;100.00
51439;BME280;38816;51.142;-0.974;2023-02-03T12:30:24;101768.41;;;10.05;100.00
51439;BME280;38816;51.142;-0.974;2023-02-03T12:32:56;101777.00;;;10.05;100.00
51439;BME280;38816;51.142;-0.974;2023-02-03T12:35:33;101777.44;;;10.16;100.00
51439;BME280;38816;51.142;-0.974;2023-02-03T12:38:21;101794.63;;;10.17;100.00
51439;BME280;38816;51.142;-0.974;2023-02-03T12:40:54;101792.63;;;10.10;100.00
51439;BME280;38816;51.142;-0.974;2023-02-03T12:43:35;101784.63;;;10.04;100.00
51439;BME280;38816;51.142;-0.974;2023-02-03T12:46:16;101780.97;;;10.18;100.00
51439;BME280;38816;51.142;-0.974;2023-02-03T12:51:51;101794.38;;;10.11;100.00
51439;BME280;38816;51.142;-0.974;2023-02-03T12:54:36;101788.59;;;10.17;100.00
51439;BME280;38816;51.142;-0.974;2023-02-03T12:57:23;101788.75;;;10.20;100.00
51439;BME280;38816;51.142;-0.974;2023-02-03T13:02:44;101783.47;;;10.17;100.00
51439;BME280;38816;51.142;-0.974;2023-02-03T13:08:16;101792.88;;;10.16;100.00
51439;BME280;38816;51.142;-0.974;2023-02-03T13:14:04;101783.06;;;10.07;100.00
51439;BME280;38816;51.142;-0.974;2023-02-03T13:16:39;101774.34;;;10.04;100.00
51439;BME280;38816;51.142;-0.974;2023-02-03T13:19:12;101794.31;;;10.09;100.00
51439;BME280;38816;51.142;-0.974;2023-02-03T13:21:40;101782.19;;;10.07;100.00
51439;BME280;38816;51.142;-0.974;2023-02-03T13:24:06;101780.03;;;10.16;100.00
51439;BME280;38816;51.142;-0.974;2023-02-03T13:26:54;101786.91;;;10.17;100.00
51439;BME280;38816;51.142;-0.974;2023-02-03T13:35:12;101792.47;;;10.07;100.00
51439;BME280;38816;51.142;-0.974;2023-02-03T13:41:02;101797.75;;;10.10;100.00
51439;BME280;38816;51.142;-0.974;2023-02-03T13:43:33;101791.25;;;9.99;100.00
51439;BME280;38816;51.142;-0.974;2023-02-03T13:46:00;101802.34;;;9.98;100.00
51439;BME280;38816;51.142;-0.974;2023-02-03T13:48:31;101780.78;;;9.94;100.00
51439;BME280;38816;51.142;-0.974;2023-02-03T13:51:04;101793.97;;;10.02;100.00
51439;BME280;38816;51.142;-0.974;2023-02-03T13:53:36;101791.19;;;9.97;100.00
51439;BME280;38816;51.142;-0.974;2023-02-03T13:56:06;101791.88;;;9.93;100.00
51439;BME280;38816;51.142;-0.974;2023-02-03T13:58:35;101792.63;;;10.10;100.00
51439;BME280;38816;51.142;-0.974;2023-02-03T14:03:47;101768.97;;;9.98;100.00
51439;BME280;38816;51.142;-0.974;2023-02-03T14:09:00;101769.41;;;10.08;100.00
51439;BME280;38816;51.142;-0.974;2023-02-03T14:16:33;101781.13;;;10.02;100.00
51439;BME280;38816;51.142;-0.974;2023-02-03T14:18:59;101774.03;;;9.96;100.00
51439;BME280;38816;51.142;-0.974;2023-02-03T14:21:24;101776.66;;;9.98;100.00
51439;BME280;38816;51.142;-0.974;2023-02-03T14:23:57;101770.50;;;9.94;100.00
51439;BME280;38816;51.142;-0.974;2023-02-03T14:26:30;101768.97;;;9.98;100.00
51439;BME280;38816;51.142;-0.974;2023-02-03T14:28:57;101770.31;;;9.89;100.00
51439;BME280;38816;51.142;-0.974;2023-02-03T14:31:24;101780.97;;;9.99;100.00
51439;BME280;38816;51.142;-0.974;2023-02-03T14:36:48;101787.09;;;10.01;100.00
51439;BME280;38816;51.142;-0.974;2023-02-03T14:44:45;101786.94;;;9.98;100.00
51439;BME280;38816;51.142;-0.974;2023-02-03T14:50:31;101780.66;;;9.91;100.00
51439;BME280;38816;51.142;-0.974;2023-02-03T14:53:23;101786.41;;;10.05;100.00
51439;BME280;38816;51.142;-0.974;2023-02-03T14:56:39;101784.16;;;10.12;100.00